createdAt,value
2022-12-01T16:30:04.039Z,18.95
2022-12-01T16:32:41.616Z,18.42
2022-12-01T16:35:26.307Z,20.77
2022-12-01T16:37:55.624Z,19.25
2022-12-01T16:40:24.047Z,22.08
2022-12-01T16:42:52.608Z,20.67
2022-12-01T16:45:20.908Z,21.60
2022-12-01T16:47:49.770Z,20.90
2022-12-01T16:50:19.963Z,21.40
2022-12-01T16:52:48.530Z,20.80
2022-12-01T16:55:37.809Z,22.33
2022-12-01T16:58:06.464Z,21.90
2022-12-01T17:00:35.136Z,21.40
2022-12-01T17:03:04.547Z,22.05
2022-12-01T17:05:33.333Z,22.55
2022-12-01T17:08:01.805Z,22.20
2022-12-01T17:10:29.926Z,22.98
2022-12-01T17:12:58.448Z,22.33
2022-12-01T17:15:26.925Z,22.92
2022-12-01T17:17:55.387Z,21.63
2022-12-01T17:20:23.482Z,21.55
2022-12-01T17:22:53.244Z,21.95
2022-12-01T17:25:21.383Z,21.63
2022-12-01T17:27:49.812Z,24.17
2022-12-01T17:30:18.236Z,21.65
2022-12-01T17:32:46.759Z,22.73
2022-12-01T17:35:14.912Z,21.85
2022-12-01T17:37:44.040Z,22.75
2022-12-01T17:40:14.791Z,22.42
2022-12-01T17:42:49.970Z,21.48
2022-12-01T17:45:19.292Z,23.02
2022-12-01T17:47:47.796Z,22.60
2022-12-01T17:50:16.178Z,21.98
2022-12-01T17:52:44.658Z,22.80
2022-12-01T17:55:12.731Z,23.35
2022-12-01T17:57:41.269Z,23.13
2022-12-01T18:00:10.570Z,21.85
2022-12-01T18:02:39.363Z,24.92
2022-12-01T18:05:08.168Z,23.60
2022-12-01T18:07:36.838Z,25.90
2022-12-01T18:10:05.265Z,25.80
2022-12-01T18:12:33.717Z,24.27
2022-12-01T18:15:01.880Z,26.30
2022-12-01T18:17:30.409Z,24.25
2022-12-01T18:19:58.517Z,27.55
2022-12-01T18:22:27.010Z,25.83
2022-12-01T18:24:56.408Z,25.25
2022-12-01T18:27:24.887Z,26.77
2022-12-01T18:29:53.029Z,25.42
2022-12-01T18:32:21.500Z,26.35
2022-12-01T18:34:50.578Z,26.75
2022-12-01T18:37:19.175Z,24.35
2022-12-01T18:39:47.335Z,25.00
2022-12-01T18:42:15.755Z,24.70
2022-12-01T18:44:43.983Z,24.58
2022-12-01T18:47:12.508Z,27.88
2022-12-01T18:49:40.656Z,27.42
2022-12-01T18:52:09.076Z,25.58
2022-12-01T18:54:37.332Z,24.00
2022-12-01T18:57:05.807Z,25.75
2022-12-01T18:59:33.947Z,26.45
2022-12-01T19:02:02.479Z,26.70
2022-12-01T19:04:30.696Z,27.20
2022-12-01T19:06:59.215Z,28.08
2022-12-01T19:09:27.350Z,29.02
2022-12-01T19:12:00.313Z,27.40
2022-12-01T19:14:29.294Z,28.45
2022-12-01T19:16:58.012Z,28.20
2022-12-01T19:19:26.565Z,27.27
2022-12-01T19:21:55.158Z,27.63
2022-12-01T19:24:23.423Z,26.50
2022-12-01T19:26:51.956Z,26.30
2022-12-01T19:29:20.190Z,26.58
2022-12-01T19:31:48.753Z,26.27
2022-12-01T19:34:16.934Z,26.30
2022-12-01T19:36:45.398Z,26.40
2022-12-01T19:39:13.528Z,24.10
2022-12-01T19:41:42.090Z,27.10
2022-12-01T19:44:11.897Z,26.17
2022-12-01T19:46:40.674Z,26.63
2022-12-01T19:49:09.669Z,24.90
2022-12-01T19:51:39.676Z,24.05
2022-12-01T19:54:19.653Z,26.10
2022-12-01T19:56:49.086Z,24.17
2022-12-01T19:59:17.251Z,24.15
2022-12-01T20:01:45.815Z,21.95
2022-12-01T20:04:14.028Z,21.67
2022-12-01T20:06:42.718Z,19.80
2022-12-01T20:09:11.053Z,20.20
2022-12-01T20:11:39.616Z,19.38
2022-12-01T20:14:09.574Z,22.75
2022-12-01T20:16:38.903Z,22.02
2022-12-01T20:19:07.629Z,22.13
2022-12-01T20:21:42.279Z,24.58
2022-12-01T20:24:16.541Z,23.17
2022-12-01T20:26:48.563Z,22.67
2022-12-01T20:29:29.167Z,24.55
2022-12-01T20:31:59.608Z,24.73
2022-12-01T20:34:31.976Z,36.60
2022-12-01T20:37:00.768Z,26.80
2022-12-01T20:39:32.492Z,24.98
2022-12-01T20:42:01.482Z,29.92
2022-12-01T20:44:29.901Z,25.35
2022-12-01T20:46:58.303Z,22.92
2022-12-01T20:49:26.490Z,23.73
2022-12-01T20:51:55.226Z,24.70
2022-12-01T20:54:28.202Z,23.77
2022-12-01T20:56:58.227Z,23.08
2022-12-01T20:59:26.468Z,23.02
2022-12-01T21:01:55.331Z,26.48
2022-12-01T21:04:23.533Z,27.20
2022-12-01T21:06:55.834Z,25.42
2022-12-01T21:09:24.508Z,25.20
2022-12-01T21:12:11.566Z,25.85
2022-12-01T21:14:43.583Z,26.67
2022-12-01T21:17:20.908Z,25.42
2022-12-01T21:20:01.808Z,26.20
2022-12-01T21:22:31.473Z,23.90
2022-12-01T21:25:15.844Z,24.75
2022-12-01T21:27:44.694Z,25.77
2022-12-01T21:30:20.219Z,24.33
2022-12-01T21:32:49.841Z,26.60
2022-12-01T21:35:25.180Z,25.63
2022-12-01T21:38:02.346Z,25.92
2022-12-01T21:40:32.316Z,26.33
2022-12-01T21:43:12.748Z,24.27
2022-12-01T21:45:40.876Z,24.85
2022-12-01T21:48:24.880Z,23.88
2022-12-01T21:50:59.947Z,24.52
2022-12-01T21:53:38.932Z,24.17
2022-12-01T21:56:14.737Z,26.75
2022-12-01T21:58:44.877Z,25.40
2022-12-01T22:01:23.883Z,27.73
2022-12-01T22:03:52.469Z,28.58
2022-12-01T22:06:41.092Z,28.10
2022-12-01T22:09:30.164Z,27.83
2022-12-01T22:12:28.487Z,26.83
2022-12-01T22:15:02.206Z,26.08
2022-12-01T22:17:30.612Z,28.17
2022-12-01T22:20:02.466Z,26.58
